• Join FlightAware (Why Join?)
  • Login
  • US Flag 
01:52AM EDT


 

Airport Tracker/Info


-or-


 

Live Flight TrackerFlight Track Log ✈ DAL1435 ✈ 03-May-2012 ✈ KLGA - KTPA

Flight Track Log - Related Links

Times and Time Zones

All times are in EDT time to prevent confusion due to time zone crossing. See the DAL1435 flight status page for this flight to view local times or setup timezone preferences in your user account.

Time Position Orientation Groundspeed Altitude Reporting Facility
EDT Latitude Longitude Course Direction KTS MPH feet Rate Location/Type
07:53PM 40.7667 -73.8333 90° East 174 200 1,400  Level New York TRACON
07:54PM 40.7667 -73.7833 333° Northwest 216 249 3,300 1,800 Climbing New York TRACON
07:55PM 40.8167 -73.8167 308° West 239 275 5,100 2,100 Climbing New York TRACON
07:56PM 40.8667 -73.9000 258° West 267 307 7,600 2,700 Climbing New York TRACON
07:57PM 40.8500 -74.0000 237° Southwest 278 320 10,500 2,040 Climbing New York TRACON
07:58PM 40.8000 -74.1000 241° Southwest 322 371 11,700 1,620 Climbing New York TRACON
08:00PM 40.6947 -74.3539 241° Southwest 410 472 15,700 1,800 Climbing New York Center
08:01PM 40.6364 -74.4903 239° Southwest 410 472 17,400 1,800 Climbing New York Center
08:02PM 40.5758 -74.6236 232° Southwest 425 489 19,400 1,800 Climbing New York Center
08:03PM 40.5031 -74.7450 231° Southwest 431 496 21,100 1,380 Climbing New York Center
08:04PM 40.4214 -74.8767 233° Southwest 446 513 22,200 1,320 Climbing New York Center
08:05PM 40.3525 -74.9950 233° Southwest 461 531 23,800 1,620 Climbing New York Center
08:06PM 40.2703 -75.1397 233° Southwest 461 531 25,500 1,740 Climbing New York Center
08:07PM 40.1989 -75.2656 234° Southwest 452 520 27,400 1,500 Climbing New York Center
08:08PM 40.1339 -75.3808 226° Southwest 441 507 28,600 1,080 Climbing New York Center
08:09PM 40.0503 -75.4947 227° Southwest 441 507 29,600 1,020 Climbing New York Center
08:10PM 39.9642 -75.6136 229° Southwest 446 513 30,700 1,020 Climbing New York Center
08:11PM 39.8861 -75.7325 230° Southwest 446 513 31,700 600 Climbing New York Center
08:12PM 39.8103 -75.8514 229° Southwest 446 513 32,000 120 Climbing New York Center
08:13PM 39.7208 -75.9856 233° Southwest 446 513 32,000  Level New York Center
08:14PM 39.6289 -76.1411 229° Southwest 428 493 32,000  Level Washington Center
08:15PM 39.5514 -76.2564 226° Southwest 428 493 32,000  Level Washington Center
08:16PM 39.4672 -76.3683 225° Southwest 428 493 32,000  Level Washington Center
08:17PM 39.3833 -76.4750 224° Southwest 433 498 32,000  Level Washington Center
08:18PM 39.2950 -76.5839 224° Southwest 433 498 32,000  Level Washington Center
08:19PM 39.2106 -76.6897 224° Southwest 433 498 32,000  Level Washington Center
08:20PM 39.1242 -76.7983 223° Southwest 433 498 32,000 -180 Level Washington Center
08:21PM 39.0375 -76.9036 223° Southwest 433 498 31,700 -1,020 Descending Washington Center
08:22PM 38.9508 -77.0089 225° Southwest 433 498 30,000 -900 Descending Washington Center
08:23PM 38.8706 -77.1114 223° Southwest 438 504 30,000  Level Washington Center
08:24PM 38.7731 -77.2292 225° Southwest 438 504 30,000  Level Washington Center
08:25PM 38.6861 -77.3389 223° Southwest 438 504 30,000  Level Washington Center
08:26PM 38.5947 -77.4483 224° Southwest 438 504 30,000  Level Washington Center
08:27PM 38.5053 -77.5575 223° Southwest 438 504 30,000  Level Washington Center
08:28PM 38.4161 -77.6639 225° Southwest 433 498 30,000  Level Washington Center
08:29PM 38.3308 -77.7728 223° Southwest 433 498 30,000  Level Washington Center
08:30PM 38.2389 -77.8811 223° Southwest 433 498 30,000  Level Washington Center
08:31PM 38.1494 -77.9867 224° Southwest 433 498 30,000  Level Washington Center
08:32PM 38.0594 -78.0972 222° Southwest 433 498 30,000  Level Washington Center
08:33PM 37.9806 -78.1867 218° Southwest 433 498 30,000  Level Washington Center
08:34PM 37.8803 -78.2858 217° Southwest 438 504 30,000  Level Washington Center
08:35PM 37.7822 -78.3797 216° Southwest 443 510 30,000  Level Washington Center
08:36PM 37.6714 -78.4806 214° Southwest 451 519 30,000  Level Washington Center
08:37PM 37.5692 -78.5683 194° South 451 519 30,000  Level Washington Center
08:38PM 37.4450 -78.6078 178° South 443 510 30,000  Level Washington Center
08:39PM 37.3136 -78.6028 175° South 456 525 30,000  Level Washington Center
08:40PM 37.1847 -78.5897 184° South 463 533 30,000  Level Washington Center
08:41PM 37.0656 -78.6008 202° Southwest 468 539 30,000  Level Washington Center
08:42PM 36.9492 -78.6611 208° Southwest 456 525 30,000  Level Washington Center
08:43PM 36.8367 -78.7372 208° Southwest 456 525 30,000  Level Washington Center
08:44PM 36.7261 -78.8106 211° Southwest 456 525 30,000  Level Washington Center
08:45PM 36.6197 -78.8889 208° Southwest 456 525 30,000  Level Washington Center
08:46PM 36.5092 -78.9617 206° Southwest 449 517 30,000  Level Washington Center
08:47PM 36.3967 -79.0292 208° Southwest 449 517 30,000 300 Level Washington Center
08:48PM 36.2861 -79.1017 208° Southwest 449 517 30,600 720 Climbing Washington Center
08:49PM 36.1756 -79.1739 207° Southwest 449 517 31,500 660 Climbing Washington Center
08:50PM 36.0650 -79.2433 208° Southwest 449 517 32,000 240 Climbing Washington Center
08:51PM 35.9564 -79.3153 207° Southwest 449 517 32,000  Level Washington Center
08:52PM 35.8350 -79.3917 207° Southwest 449 517 32,000  Level Washington Center
08:53PM 35.7242 -79.4606 207° Southwest 449 517 32,000  Level Washington Center
08:54PM 35.6133 -79.5292 208° Southwest 444 511 32,000  Level Washington Center
08:55PM 35.5006 -79.6028 207° Southwest 453 521 32,100 540 Climbing Washington Center
08:57PM 35.2808 -79.7392 207° Southwest 453 521 33,800 480 Climbing Washington Center
08:59PM 35.0789 -79.8642 207° Southwest 421 484 34,000 60 Climbing Jacksonville Center
09:00PM 34.9719 -79.9311 207° Southwest 427 491 34,000 -60 Level Jacksonville Center
09:02PM 34.7500 -80.0703 206° Southwest 433 498 33,900  Descending Jacksonville Center
09:03PM 34.6428 -80.1344 207° Southwest 428 493 34,000  Climbing Jacksonville Center
09:04PM 34.5358 -80.2008 207° Southwest 428 493 34,000  Level Jacksonville Center
09:05PM 34.4308 -80.2644 208° Southwest 428 493 34,000  Level Jacksonville Center
09:06PM 34.3236 -80.3331 206° Southwest 428 493 34,000  Level Jacksonville Center
09:07PM 34.2164 -80.3964 207° Southwest 428 493 34,000  Level Jacksonville Center
09:08PM 34.1072 -80.4622 207° Southwest 428 493 34,000  Level Jacksonville Center
09:09PM 34.0019 -80.5278 207° Southwest 428 493 34,000 -60 Level Jacksonville Center
09:10PM 33.8947 -80.5933 207° Southwest 428 493 33,900 -60 Descending Jacksonville Center
09:11PM 33.7875 -80.6586 206° Southwest 428 493 33,900  Level Jacksonville Center
09:12PM 33.6781 -80.7236 207° Southwest 428 493 34,000  Climbing Jacksonville Center
09:13PM 33.5706 -80.7886 206° Southwest 428 493 34,000  Level Jacksonville Center
09:14PM 33.4631 -80.8511 207° Southwest 428 493 34,000  Level Jacksonville Center
09:15PM 33.3556 -80.9156 207° Southwest 428 493 34,000  Level Jacksonville Center
09:16PM 33.2481 -80.9800 207° Southwest 428 493 34,000  Level Jacksonville Center
09:17PM 33.1406 -81.0444 207° Southwest 428 493 34,000  Level Jacksonville Center
09:18PM 33.0328 -81.1086 206° Southwest 428 493 34,000 -60 Level Jacksonville Center
09:19PM 32.9250 -81.1700 211° Southwest 428 493 33,900  Descending Jacksonville Center
09:20PM 32.8217 -81.2439 210° Southwest 428 493 34,000  Climbing Jacksonville Center
09:21PM 32.7203 -81.3147 211° Southwest 433 498 34,000  Level Jacksonville Center
09:22PM 32.6169 -81.3881 211° Southwest 438 504 34,000  Level Jacksonville Center
09:23PM 32.5236 -81.4536 206° Southwest 438 504 34,000  Level Jacksonville Center
09:24PM 32.4033 -81.5244 196° South 438 504 34,000  Level Jacksonville Center
09:25PM 32.2972 -81.5606 194° South 445 512 34,000  Level Jacksonville Center
09:26PM 32.1661 -81.5992 195° South 442 509 34,000  Level Jacksonville Center
09:27PM 32.0433 -81.6378 193° South 442 509 34,000  Level Jacksonville Center
09:28PM 31.9228 -81.6711 195° South 447 514 34,000  Level Jacksonville Center
09:29PM 31.8019 -81.7094 195° South 452 520 34,000  Level Jacksonville Center
09:30PM 31.6936 -81.7425 195° South 452 520 34,000  Level Jacksonville Center
09:31PM 31.5603 -81.7833 194° South 452 520 34,000 -1,200 Level Jacksonville Center
09:32PM 31.4375 -81.8186 194° South 452 520 31,700 -2,040 Descending Jacksonville Center
09:33PM 31.3125 -81.8542 195° South 458 527 30,000 -900 Descending Jacksonville Center
09:34PM 31.1856 -81.8944 195° South 470 541 30,000  Level Jacksonville Center
09:35PM 31.0606 -81.9322 194° South 464 534 30,000  Level Jacksonville Center
09:36PM 30.9356 -81.9672 195° South 464 534 30,000  Level Jacksonville Center
09:37PM 30.8106 -82.0050 194° South 469 540 30,000  Level Jacksonville Center
09:38PM 30.6958 -82.0372 194° South 475 547 30,000  Level Jacksonville Center
09:39PM 30.5708 -82.0747 193° South 470 541 30,000  Level Jacksonville Center
09:40PM 30.4353 -82.1119 194° South 465 535 30,000  Level Jacksonville Center
09:41PM 30.3081 -82.1492 194° South 469 540 30,000  Level Jacksonville Center
09:42PM 30.1831 -82.1861 194° South 475 547 30,000  Level Jacksonville Center
09:43PM 30.0561 -82.2231 189° South 469 540 30,000 -600 Level Jacksonville Center
09:44PM 29.9372 -82.2456 180° South 479 551 28,900 -1,260 Descending Jacksonville Center
09:45PM 29.8078 -82.2464 179° South 473 544 27,500 -1,380 Descending Jacksonville Center
09:46PM 29.6636 -82.2447 181° South 473 544 26,200 -840 Descending Jacksonville Center
09:47PM 29.5364 -82.2481 180° South 473 544 25,900 -180 Descending Jacksonville Center
09:48PM 29.4069 -82.2489 181° South 468 539 25,900 -900 Level Jacksonville Center
09:49PM 29.2775 -82.2522 180° South 468 539 24,100 -2,040 Descending Jacksonville Center
09:50PM 29.1564 -82.2531 180° South 461 531 21,900 -2,340 Descending Jacksonville Center
09:51PM 29.0375 -82.2536 180° South 443 510 19,500 -2,340 Descending Jacksonville Center
09:52PM 28.9247 -82.2544 180° South 421 484 17,300 -2,340 Descending Jacksonville Center
09:53PM 28.8161 -82.2553 179° South 407 468 14,900 -1,440 Descending Jacksonville Center
09:55PM 28.6000 -82.2500 180° South 372 428 12,900 -960 Descending Tampa TRACON
09:56PM 28.5000 -82.2500 180° South 339 390 11,900 -960 Descending Tampa TRACON
09:57PM 28.4167 -82.2500 192° South 297 342 11,100 -1,140 Descending Tampa TRACON
09:58PM 28.3500 -82.2667 213° Southwest 279 321 9,700 -1,020 Descending Tampa TRACON
09:59PM 28.2833 -82.3167 230° Southwest 279 321 9,100 -360 Descending Tampa TRACON
10:00PM 28.2333 -82.3833 204° Southwest 282 325 9,100 -60 Level Tampa TRACON
10:01PM 28.1667 -82.4167 180° South 266 306 9,000 -900 Descending Tampa TRACON
10:02PM 28.1000 -82.4167 180° South 261 300 7,400 -1,620 Descending Tampa TRACON
10:03PM 28.0167 -82.4167 204° Southwest 265 305 5,800 -1,200 Descending Tampa TRACON
10:04PM 27.9500 -82.4500 204° Southwest 249 287 5,000 -840 Descending Tampa TRACON